sensor_id;sensor_type;location;lat;lon;timestamp;pressure;altitude;pressure_sealevel;temperature;humidity
67434;BME280;54305;47.950;6.572;2023-09-08T00:02:10;94552.75;;;19.10;100.00
67434;BME280;54305;47.950;6.572;2023-09-08T00:04:35;94550.56;;;19.07;100.00
67434;BME280;54305;47.950;6.572;2023-09-08T00:07:01;94547.91;;;19.07;100.00
67434;BME280;54305;47.950;6.572;2023-09-08T00:09:26;94551.97;;;19.09;100.00
67434;BME280;54305;47.950;6.572;2023-09-08T00:11:51;94549.91;;;19.18;100.00
67434;BME280;54305;47.950;6.572;2023-09-08T00:14:19;94541.16;;;19.24;100.00
67434;BME280;54305;47.950;6.572;2023-09-08T00:16:44;94554.78;;;19.21;100.00
67434;BME280;54305;47.950;6.572;2023-09-08T00:19:10;94545.44;;;19.25;100.00
67434;BME280;54305;47.950;6.572;2023-09-08T00:21:35;94549.91;;;19.18;100.00
67434;BME280;54305;47.950;6.572;2023-09-08T00:24:01;94546.03;;;19.14;100.00
67434;BME280;54305;47.950;6.572;2023-09-08T00:26:26;94545.28;;;19.07;100.00
67434;BME280;54305;47.950;6.572;2023-09-08T00:28:52;94546.69;;;19.03;100.00
67434;BME280;54305;47.950;6.572;2023-09-08T00:31:17;94544.47;;;19.00;100.00
67434;BME280;54305;47.950;6.572;2023-09-08T00:33:42;94547.91;;;19.00;100.00
67434;BME280;54305;47.950;6.572;2023-09-08T00:36:09;94547.72;;;18.95;100.00
67434;BME280;54305;47.950;6.572;2023-09-08T00:38:34;94549.53;;;18.95;100.00
67434;BME280;54305;47.950;6.572;2023-09-08T00:40:59;94542.25;;;18.90;100.00
67434;BME280;54305;47.950;6.572;2023-09-08T00:43:25;94546.72;;;18.90;100.00
67434;BME280;54305;47.950;6.572;2023-09-08T00:45:51;94550.78;;;18.86;100.00
67434;BME280;54305;47.950;6.572;2023-09-08T00:48:16;94540.66;;;18.83;100.00
67434;BME280;54305;47.950;6.572;2023-09-08T00:50:41;94546.72;;;18.77;100.00
67434;BME280;54305;47.950;6.572;2023-09-08T00:53:07;94547.16;;;18.74;100.00
67434;BME280;54305;47.950;6.572;2023-09-08T00:55:32;94546.97;;;18.69;100.00
67434;BME280;54305;47.950;6.572;2023-09-08T00:57:58;94550.00;;;18.66;100.00
67434;BME280;54305;47.950;6.572;2023-09-08T01:00:24;94548.59;;;18.70;100.00
67434;BME280;54305;47.950;6.572;2023-09-08T01:02:49;94547.56;;;18.84;100.00
67434;BME280;54305;47.950;6.572;2023-09-08T01:05:15;94547.94;;;18.81;100.00
67434;BME280;54305;47.950;6.572;2023-09-08T01:07:40;94546.97;;;18.75;100.00
67434;BME280;54305;47.950;6.572;2023-09-08T01:10:06;94544.47;;;19.00;100.00
67434;BME280;54305;47.950;6.572;2023-09-08T01:12:32;94543.03;;;19.04;100.00
67434;BME280;54305;47.950;6.572;2023-09-08T01:14:58;94547.34;;;18.92;100.00
67434;BME280;54305;47.950;6.572;2023-09-08T01:17:23;94548.38;;;18.78;100.00
67434;BME280;54305;47.950;6.572;2023-09-08T01:19:49;94552.84;;;18.71;100.00
67434;BME280;54305;47.950;6.572;2023-09-08T01:22:35;94551.63;;;18.67;100.00
67434;BME280;54305;47.950;6.572;2023-09-08T01:27:28;94540.84;;;18.88;100.00
67434;BME280;54305;47.950;6.572;2023-09-08T01:29:54;94550.00;;;18.79;100.00
67434;BME280;54305;47.950;6.572;2023-09-08T01:32:19;94543.91;;;18.72;100.00
67434;BME280;54305;47.950;6.572;2023-09-08T01:34:45;94541.06;;;18.67;100.00
67434;BME280;54305;47.950;6.572;2023-09-08T01:37:10;94536.59;;;18.74;100.00
67434;BME280;54305;47.950;6.572;2023-09-08T01:39:36;94540.47;;;18.65;100.00
67434;BME280;54305;47.950;6.572;2023-09-08T01:42:01;94534.19;;;18.66;100.00
67434;BME280;54305;47.950;6.572;2023-09-08T01:44:26;94530.50;;;18.67;100.00
67434;BME280;54305;47.950;6.572;2023-09-08T01:46:51;94539.44;;;18.59;100.00
67434;BME280;54305;47.950;6.572;2023-09-08T01:49:21;94535.81;;;18.54;100.00
67434;BME280;54305;47.950;6.572;2023-09-08T01:51:46;94537.03;;;18.58;100.00
67434;BME280;54305;47.950;6.572;2023-09-08T01:54:12;94535.00;;;18.60;100.00
67434;BME280;54305;47.950;6.572;2023-09-08T01:56:37;94527.69;;;18.62;100.00
67434;BME280;54305;47.950;6.572;2023-09-08T01:59:02;94534.34;;;18.77;100.00
67434;BME280;54305;47.950;6.572;2023-09-08T02:01:28;94531.72;;;18.84;100.00
67434;BME280;54305;47.950;6.572;2023-09-08T02:03:53;94537.81;;;18.78;100.00
67434;BME280;54305;47.950;6.572;2023-09-08T02:06:18;94534.78;;;18.68;100.00
67434;BME280;54305;47.950;6.572;2023-09-08T02:08:43;94527.69;;;18.62;100.00
67434;BME280;54305;47.950;6.572;2023-09-08T02:11:09;94535.59;;;18.62;100.00
67434;BME280;54305;47.950;6.572;2023-09-08T02:13:34;94533.38;;;18.59;100.00
67434;BME280;54305;47.950;6.572;2023-09-08T02:15:59;94537.84;;;18.52;100.00
67434;BME280;54305;47.950;6.572;2023-09-08T02:18:25;94530.13;;;18.57;100.00
67434;BME280;54305;47.950;6.572;2023-09-08T02:20:51;94535.44;;;18.50;100.00
67434;BME280;54305;47.950;6.572;2023-09-08T02:23:16;94531.34;;;18.48;100.00
67434;BME280;54305;47.950;6.572;2023-09-08T02:25:41;94529.72;;;18.53;100.00
67434;BME280;54305;47.950;6.572;2023-09-08T02:28:06;94533.00;;;18.49;100.00
67434;BME280;54305;47.950;6.572;2023-09-08T02:30:31;94519.19;;;18.47;100.00
67434;BME280;54305;47.950;6.572;2023-09-08T02:32:57;94525.28;;;18.41;100.00
67434;BME280;54305;47.950;6.572;2023-09-08T02:35:23;94524.44;;;18.47;100.00
67434;BME280;54305;47.950;6.572;2023-09-08T02:37:48;94526.88;;;18.55;100.00
67434;BME280;54305;47.950;6.572;2023-09-08T02:40:13;94522.84;;;18.59;100.00
67434;BME280;54305;47.950;6.572;2023-09-08T02:42:38;94518.78;;;18.56;100.00
67434;BME280;54305;47.950;6.572;2023-09-08T02:45:04;94535.81;;;18.47;100.00
67434;BME280;54305;47.950;6.572;2023-09-08T02:47:29;94534.22;;;18.40;100.00
67434;BME280;54305;47.950;6.572;2023-09-08T02:49:54;94534.19;;;18.33;100.00
67434;BME280;54305;47.950;6.572;2023-09-08T02:52:20;94527.31;;;18.32;100.00
67434;BME280;54305;47.950;6.572;2023-09-08T02:54:45;94532.16;;;18.29;100.00
67434;BME280;54305;47.950;6.572;2023-09-08T02:57:10;94525.66;;;18.38;100.00
67434;BME280;54305;47.950;6.572;2023-09-08T02:59:36;94534.59;;;18.37;100.00
67434;BME280;54305;47.950;6.572;2023-09-08T03:02:01;94537.44;;;18.35;100.00
67434;BME280;54305;47.950;6.572;2023-09-08T03:04:26;94530.13;;;18.31;100.00
67434;BME280;54305;47.950;6.572;2023-09-08T03:06:51;94533.38;;;18.26;100.00
67434;BME280;54305;47.950;6.572;2023-09-08T03:09:17;94533.56;;;18.25;100.00
67434;BME280;54305;47.950;6.572;2023-09-08T03:11:42;94535.38;;;18.18;100.00
67434;BME280;54305;47.950;6.572;2023-09-08T03:14:07;94535.78;;;18.15;100.00
67434;BME280;54305;47.950;6.572;2023-09-08T03:16:33;94537.81;;;18.13;100.00
67434;BME280;54305;47.950;6.572;2023-09-08T03:18:58;94545.13;;;18.11;100.00
67434;BME280;54305;47.950;6.572;2023-09-08T03:21:23;94547.53;;;18.06;100.00
67434;BME280;54305;47.950;6.572;2023-09-08T03:23:49;94548.34;;;18.06;100.00
67434;BME280;54305;47.950;6.572;2023-09-08T03:26:14;94536.59;;;18.22;100.00
67434;BME280;54305;47.950;6.572;2023-09-08T03:28:41;94538.63;;;18.20;100.00
67434;BME280;54305;47.950;6.572;2023-09-08T03:31:07;94542.25;;;18.19;100.00
67434;BME280;54305;47.950;6.572;2023-09-08T03:33:32;94543.06;;;18.13;100.00
67434;BME280;54305;47.950;6.572;2023-09-08T03:35:57;94545.13;;;18.11;100.00
67434;BME280;54305;47.950;6.572;2023-09-08T03:38:23;94541.47;;;18.18;100.00
67434;BME280;54305;47.950;6.572;2023-09-08T03:40:48;94547.34;;;18.27;100.00
67434;BME280;54305;47.950;6.572;2023-09-08T03:43:13;94538.03;;;18.31;100.00
67434;BME280;54305;47.950;6.572;2023-09-08T03:45:39;94541.50;;;18.31;100.00
67434;BME280;54305;47.950;6.572;2023-09-08T03:48:04;94536.59;;;18.28;100.00
67434;BME280;54305;47.950;6.572;2023-09-08T03:50:29;94540.66;;;18.31;100.00
67434;BME280;54305;47.950;6.572;2023-09-08T03:52:55;94540.47;;;18.26;100.00
67434;BME280;54305;47.950;6.572;2023-09-08T03:55:20;94542.06;;;18.27;100.00
67434;BME280;54305;47.950;6.572;2023-09-08T03:57:46;94543.50;;;18.23;100.00
67434;BME280;54305;47.950;6.572;2023-09-08T04:00:11;94541.88;;;18.22;100.00
67434;BME280;54305;47.950;6.572;2023-09-08T04:02:37;94536.41;;;18.17;100.00
67434;BME280;54305;47.950;6.572;2023-09-08T04:05:02;94544.31;;;18.17;100.00
67434;BME280;54305;47.950;6.572;2023-09-08T04:07:28;94541.47;;;18.12;100.00
67434;BME280;54305;47.950;6.572;2023-09-08T04:09:53;94546.72;;;18.12;100.00
67434;BME280;54305;47.950;6.572;2023-09-08T04:12:18;94538.63;;;18.07;100.00
67434;BME280;54305;47.950;6.572;2023-09-08T04:14:43;94546.31;;;18.02;100.00
67434;BME280;54305;47.950;6.572;2023-09-08T04:17:09;94547.13;;;18.09;100.00
67434;BME280;54305;47.950;6.572;2023-09-08T04:19:34;94540.88;;;18.10;100.00
67434;BME280;54305;47.950;6.572;2023-09-08T04:21:59;94542.28;;;18.06;100.00
67434;BME280;54305;47.950;6.572;2023-09-08T04:24:24;94547.13;;;18.09;100.00
67434;BME280;54305;47.950;6.572;2023-09-08T04:26:49;94537.81;;;18.19;100.00
67434;BME280;54305;47.950;6.572;2023-09-08T04:29:15;94537.00;;;18.32;100.00
67434;BME280;54305;47.950;6.572;2023-09-08T04:31:40;94542.94;;;18.34;100.00
67434;BME280;54305;47.950;6.572;2023-09-08T04:34:05;94542.69;;;18.29;100.00
67434;BME280;54305;47.950;6.572;2023-09-08T04:36:31;94546.16;;;18.42;100.00
67434;BME280;54305;47.950;6.572;2023-09-08T04:38:56;94544.31;;;18.43;100.00
67434;BME280;54305;47.950;6.572;2023-09-08T04:41:21;94544.75;;;18.40;100.00
67434;BME280;54305;47.950;6.572;2023-09-08T04:43:47;94544.75;;;18.33;100.00
67434;BME280;54305;47.950;6.572;2023-09-08T04:46:12;94547.19;;;18.35;100.00
67434;BME280;54305;47.950;6.572;2023-09-08T04:48:37;94545.97;;;18.44;100.00
67434;BME280;54305;47.950;6.572;2023-09-08T04:51:02;94541.50;;;18.44;100.00
67434;BME280;54305;47.950;6.572;2023-09-08T04:53:28;94550.03;;;18.40;100.00
67434;BME280;54305;47.950;6.572;2023-09-08T04:55:53;94548.81;;;18.36;100.00
67434;BME280;54305;47.950;6.572;2023-09-08T04:58:18;94552.66;;;18.33;100.00
67434;BME280;54305;47.950;6.572;2023-09-08T05:00:43;94549.63;;;18.36;100.00
67434;BME280;54305;47.950;6.572;2023-09-08T05:03:09;94545.34;;;18.29;100.00
67434;BME280;54305;47.950;6.572;2023-09-08T05:05:34;94552.22;;;18.30;100.00
67434;BME280;54305;47.950;6.572;2023-09-08T05:07:59;94548.00;;;18.42;100.00
67434;BME280;54305;47.950;6.572;2023-09-08T05:10:25;94545.97;;;18.44;100.00
67434;BME280;54305;47.950;6.572;2023-09-08T05:12:50;94550.44;;;18.50;100.00
67434;BME280;54305;47.950;6.572;2023-09-08T05:15:16;94544.75;;;18.40;100.00
67434;BME280;54305;47.950;6.572;2023-09-08T05:17:42;94557.75;;;18.35;100.00
67434;BME280;54305;47.950;6.572;2023-09-08T05:20:07;94554.66;;;18.31;100.00
67434;BME280;54305;47.950;6.572;2023-09-08T05:22:33;94562.16;;;18.28;100.00
67434;BME280;54305;47.950;6.572;2023-09-08T05:24:58;94557.31;;;18.25;100.00
67434;BME280;54305;47.950;6.572;2023-09-08T05:27:23;94556.28;;;18.26;100.00
67434;BME280;54305;47.950;6.572;2023-09-08T05:29:49;94565.81;;;18.27;100.00
67434;BME280;54305;47.950;6.572;2023-09-08T05:32:14;94568.09;;;18.36;100.00
67434;BME280;54305;47.950;6.572;2023-09-08T05:34:39;94565.03;;;18.46;100.00
67434;BME280;54305;47.950;6.572;2023-09-08T05:37:04;94566.47;;;18.55;100.00
67434;BME280;54305;47.950;6.572;2023-09-08T05:39:29;94564.63;;;18.68;100.00
67434;BME280;54305;47.950;6.572;2023-09-08T05:41:55;94564.59;;;18.75;100.00
67434;BME280;54305;47.950;6.572;2023-09-08T05:44:20;94575.97;;;18.82;100.00
67434;BME280;54305;47.950;6.572;2023-09-08T05:46:45;94584.09;;;18.87;100.00
67434;BME280;54305;47.950;6.572;2023-09-08T05:49:10;94574.72;;;18.91;100.00
67434;BME280;54305;47.950;6.572;2023-09-08T05:51:36;94576.56;;;18.97;100.00
67434;BME280;54305;47.950;6.572;2023-09-08T05:54:01;94580.59;;;19.06;100.00
67434;BME280;54305;47.950;6.572;2023-09-08T05:56:30;94578.34;;;19.16;100.00
67434;BME280;54305;47.950;6.572;2023-09-08T05:58:55;94580.78;;;19.24;100.00
67434;BME280;54305;47.950;6.572;2023-09-08T06:01:21;94579.53;;;19.33;100.00
67434;BME280;54305;47.950;6.572;2023-09-08T06:03:46;94577.44;;;19.48;100.00
67434;BME280;54305;47.950;6.572;2023-09-08T06:06:11;94581.47;;;19.57;100.00
67434;BME280;54305;47.950;6.572;2023-09-08T06:08:37;94580.22;;;19.66;100.00
67434;BME280;54305;47.950;6.572;2023-09-08T06:11:02;94575.34;;;19.69;100.00
67434;BME280;54305;47.950;6.572;2023-09-08T06:13:27;94572.66;;;19.76;100.00
67434;BME280;54305;47.950;6.572;2023-09-08T06:15:52;94577.72;;;19.84;100.00
67434;BME280;54305;47.950;6.572;2023-09-08T06:18:17;94580.72;;;19.94;100.00
67434;BME280;54305;47.950;6.572;2023-09-08T06:20:43;94579.66;;;20.08;100.00
67434;BME280;54305;47.950;6.572;2023-09-08T06:23:09;94581.19;;;20.22;100.00
67434;BME280;54305;47.950;6.572;2023-09-08T06:25:34;94578.19;;;20.43;100.00
67434;BME280;54305;47.950;6.572;2023-09-08T06:28:00;94581.28;;;20.65;100.00
67434;BME280;54305;47.950;6.572;2023-09-08T06:30:25;94583.53;;;20.86;100.00
67434;BME280;54305;47.950;6.572;2023-09-08T06:32:51;94583.53;;;21.10;100.00
67434;BME280;54305;47.950;6.572;2023-09-08T06:35:16;94583.84;;;21.38;100.00
67434;BME280;54305;47.950;6.572;2023-09-08T06:37:42;94589.66;;;21.65;100.00
67434;BME280;54305;47.950;6.572;2023-09-08T06:40:07;94589.38;;;21.91;100.00
67434;BME280;54305;47.950;6.572;2023-09-08T06:42:32;94587.03;;;22.12;100.00
67434;BME280;54305;47.950;6.572;2023-09-08T06:44:58;94588.50;;;22.38;100.00
67434;BME280;54305;47.950;6.572;2023-09-08T06:47:24;94586.41;;;22.58;100.00
67434;BME280;54305;47.950;6.572;2023-09-08T06:49:49;94583.53;;;22.82;100.00
67434;BME280;54305;47.950;6.572;2023-09-08T06:52:15;94583.31;;;22.95;100.00
67434;BME280;54305;47.950;6.572;2023-09-08T06:54:40;94584.72;;;23.09;100.00
67434;BME280;54305;47.950;6.572;2023-09-08T06:57:05;94590.63;;;23.23;100.00
67434;BME280;54305;47.950;6.572;2023-09-08T06:59:30;94589.13;;;23.38;100.00
67434;BME280;54305;47.950;6.572;2023-09-08T07:01:56;94590.00;;;23.55;100.00
67434;BME280;54305;47.950;6.572;2023-09-08T07:04:21;94594.13;;;23.74;100.00
67434;BME280;54305;47.950;6.572;2023-09-08T07:06:46;94590.66;;;23.85;100.00
67434;BME280;54305;47.950;6.572;2023-09-08T07:09:12;94595.91;;;24.08;100.00
67434;BME280;54305;47.950;6.572;2023-09-08T07:11:37;94590.41;;;24.26;100.00
67434;BME280;54305;47.950;6.572;2023-09-08T07:14:02;94597.63;;;24.42;100.00
67434;BME280;54305;47.950;6.572;2023-09-08T07:16:28;94597.63;;;24.42;100.00
67434;BME280;54305;47.950;6.572;2023-09-08T07:18:53;94594.44;;;24.57;100.00
67434;BME280;54305;47.950;6.572;2023-09-08T07:21:18;94591.44;;;24.81;100.00
67434;BME280;54305;47.950;6.572;2023-09-08T07:23:44;94595.13;;;24.97;100.00
67434;BME280;54305;47.950;6.572;2023-09-08T07:26:09;94593.03;;;25.15;100.00
67434;BME280;54305;47.950;6.572;2023-09-08T07:28:34;94594.13;;;25.19;100.00
67434;BME280;54305;47.950;6.572;2023-09-08T07:31:03;94590.69;;;25.19;100.00
67434;BME280;54305;47.950;6.572;2023-09-08T07:33:29;94591.88;;;25.44;100.00
67434;BME280;54305;47.950;6.572;2023-09-08T07:35:54;94589.16;;;25.39;100.00
67434;BME280;54305;47.950;6.572;2023-09-08T07:38:20;94595.09;;;25.46;100.00
67434;BME280;54305;47.950;6.572;2023-09-08T07:40:45;94597.38;;;25.54;100.00
67434;BME280;54305;47.950;6.572;2023-09-08T07:43:10;94601.72;;;25.60;100.00
67434;BME280;54305;47.950;6.572;2023-09-08T07:45:35;94598.78;;;25.62;100.00
67434;BME280;54305;47.950;6.572;2023-09-08T07:48:01;94600.56;;;25.56;100.00
67434;BME280;54305;47.950;6.572;2023-09-08T07:50:27;94599.84;;;25.82;100.00
67434;BME280;54305;47.950;6.572;2023-09-08T07:52:53;94595.81;;;25.80;100.00
67434;BME280;54305;47.950;6.572;2023-09-08T07:55:19;94591.56;;;26.00;100.00
67434;BME280;54305;47.950;6.572;2023-09-08T07:57:45;94596.38;;;25.82;100.00
67434;BME280;54305;47.950;6.572;2023-09-08T08:00:11;94595.88;;;25.63;100.00
67434;BME280;54305;47.950;6.572;2023-09-08T08:02:37;94592.81;;;25.55;100.00
67434;BME280;54305;47.950;6.572;2023-09-08T08:05:03;94604.63;;;25.80;100.00
67434;BME280;54305;47.950;6.572;2023-09-08T08:07:29;94602.75;;;25.97;100.00
67434;BME280;54305;47.950;6.572;2023-09-08T08:09:55;94598.13;;;26.14;100.00
67434;BME280;54305;47.950;6.572;2023-09-08T08:12:20;94597.53;;;26.07;100.00
67434;BME280;54305;47.950;6.572;2023-09-08T08:14:45;94596.47;;;26.08;100.00
67434;BME280;54305;47.950;6.572;2023-09-08T08:17:11;94599.03;;;25.98;100.00
67434;BME280;54305;47.950;6.572;2023-09-08T08:19:36;94598.25;;;25.81;100.00
67434;BME280;54305;47.950;6.572;2023-09-08T08:22:01;94595.72;;;25.53;100.00
67434;BME280;54305;47.950;6.572;2023-09-08T08:24:26;94597.78;;;25.46;100.00
67434;BME280;54305;47.950;6.572;2023-09-08T08:26:52;94599.00;;;25.22;100.00
67434;BME280;54305;47.950;6.572;2023-09-08T08:29:17;94607.81;;;25.39;100.00
67434;BME280;54305;47.950;6.572;2023-09-08T08:31:42;94608.50;;;25.51;100.00
67434;BME280;54305;47.950;6.572;2023-09-08T08:34:07;94610.97;;;25.36;100.00
67434;BME280;54305;47.950;6.572;2023-09-08T08:36:34;94610.69;;;25.54;100.00
67434;BME280;54305;47.950;6.572;2023-09-08T08:38:59;94612.38;;;25.60;100.00
67434;BME280;54305;47.950;6.572;2023-09-08T08:41:24;94610.97;;;25.36;100.00
67434;BME280;54305;47.950;6.572;2023-09-08T08:43:50;94604.16;;;25.45;100.00
67434;BME280;54305;47.950;6.572;2023-09-08T08:46:16;94607.47;;;25.19;100.00
67434;BME280;54305;47.950;6.572;2023-09-08T08:48:42;94617.09;;;25.20;100.00
67434;BME280;54305;47.950;6.572;2023-09-08T08:51:10;94613.22;;;25.11;100.00
67434;BME280;54305;47.950;6.572;2023-09-08T08:53:35;94613.47;;;25.26;100.00
67434;BME280;54305;47.950;6.572;2023-09-08T08:56:03;94613.47;;;25.26;100.00
67434;BME280;54305;47.950;6.572;2023-09-08T08:58:28;94613.59;;;25.53;100.00
67434;BME280;54305;47.950;6.572;2023-09-08T09:00:54;94604.78;;;25.52;100.00
67434;BME280;54305;47.950;6.572;2023-09-08T09:03:22;94600.09;;;25.59;100.00
67434;BME280;54305;47.950;6.572;2023-09-08T09:05:48;94602.84;;;25.64;100.00
67434;BME280;54305;47.950;6.572;2023-09-08T09:08:13;94597.25;;;25.87;100.00
67434;BME280;54305;47.950;6.572;2023-09-08T09:10:39;94609.72;;;25.98;100.00
67434;BME280;54305;47.950;6.572;2023-09-08T09:13:05;94613.25;;;25.87;100.00
67434;BME280;54305;47.950;6.572;2023-09-08T09:15:30;94607.44;;;25.90;100.00
67434;BME280;54305;47.950;6.572;2023-09-08T09:18:04;94601.13;;;25.96;100.00
67434;BME280;54305;47.950;6.572;2023-09-08T09:20:29;94612.44;;;26.03;100.00
67434;BME280;54305;47.950;6.572;2023-09-08T09:22:54;94611.00;;;25.96;100.00
67434;BME280;54305;47.950;6.572;2023-09-08T09:25:23;94609.66;;;25.93;100.00
67434;BME280;54305;47.950;6.572;2023-09-08T09:27:55;94612.03;;;25.73;100.00
67434;BME280;54305;47.950;6.572;2023-09-08T09:30:21;94615.72;;;26.10;100.00
67434;BME280;54305;47.950;6.572;2023-09-08T09:32:47;94613.25;;;25.87;100.00
67434;BME280;54305;47.950;6.572;2023-09-08T09:35:14;94623.44;;;25.90;100.00
67434;BME280;54305;47.950;6.572;2023-09-08T09:37:40;94618.47;;;25.77;100.00
67434;BME280;54305;47.950;6.572;2023-09-08T09:40:06;94620.66;;;25.80;100.00
67434;BME280;54305;47.950;6.572;2023-09-08T09:42:32;94619.88;;;26.01;100.00
67434;BME280;54305;47.950;6.572;2023-09-08T09:44:58;94615.03;;;25.98;100.00
67434;BME280;54305;47.950;6.572;2023-09-08T09:47:25;94621.56;;;26.07;100.00
67434;BME280;54305;47.950;6.572;2023-09-08T09:49:51;94609.63;;;26.36;100.00
67434;BME280;54305;47.950;6.572;2023-09-08T09:52:23;94617.09;;;26.39;100.00
67434;BME280;54305;47.950;6.572;2023-09-08T09:54:50;94616.50;;;26.32;100.00
67434;BME280;54305;47.950;6.572;2023-09-08T09:57:19;94614.91;;;26.31;100.00
67434;BME280;54305;47.950;6.572;2023-09-08T09:59:45;94616.84;;;26.62;100.00
67434;BME280;54305;47.950;6.572;2023-09-08T10:02:13;94621.28;;;26.78;100.00
67434;BME280;54305;47.950;6.572;2023-09-08T10:04:42;94620.50;;;27.09;100.00
67434;BME280;54305;47.950;6.572;2023-09-08T10:07:08;94612.38;;;27.26;100.00
67434;BME280;54305;47.950;6.572;2023-09-08T10:09:35;94610.66;;;26.88;100.00
67434;BME280;54305;47.950;6.572;2023-09-08T10:12:03;94609.09;;;27.60;100.00
67434;BME280;54305;47.950;6.572;2023-09-08T10:14:28;94614.25;;;27.30;100.00
67434;BME280;54305;47.950;6.572;2023-09-08T10:16:55;94612.03;;;27.95;100.00
67434;BME280;54305;47.950;6.572;2023-09-08T10:19:22;94607.19;;;28.69;100.00
67434;BME280;54305;47.950;6.572;2023-09-08T10:21:47;94606.44;;;28.12;100.00
67434;BME280;54305;47.950;6.572;2023-09-08T10:24:22;94609.09;;;28.93;97.96
67434;BME280;54305;47.950;6.572;2023-09-08T10:26:58;94602.69;;;29.29;98.11
67434;BME280;54305;47.950;6.572;2023-09-08T10:29:25;94602.66;;;29.39;89.95
67434;BME280;54305;47.950;6.572;2023-09-08T10:31:51;94602.53;;;30.09;87.44
67434;BME280;54305;47.950;6.572;2023-09-08T10:34:17;94601.09;;;28.98;89.63
67434;BME280;54305;47.950;6.572;2023-09-08T10:36:43;94601.06;;;29.18;91.40
67434;BME280;54305;47.950;6.572;2023-09-08T10:39:27;94592.50;;;29.21;84.13
67434;BME280;54305;47.950;6.572;2023-09-08T10:42:19;94588.53;;;30.27;74.43
67434;BME280;54305;47.950;6.572;2023-09-08T10:44:38;94585.06;;;30.65;63.52
67434;BME280;54305;47.950;6.572;2023-09-08T10:47:03;94584.91;;;30.95;66.07
67434;BME280;54305;47.950;6.572;2023-09-08T10:49:29;94582.72;;;30.97;71.15
67434;BME280;54305;47.950;6.572;2023-09-08T10:52:09;94583.19;;;31.09;68.19
67434;BME280;54305;47.950;6.572;2023-09-08T10:57:06;94588.06;;;31.02;59.95
67434;BME280;54305;47.950;6.572;2023-09-08T10:59:37;94577.34;;;30.97;56.32
67434;BME280;54305;47.950;6.572;2023-09-08T11:02:03;94579.53;;;31.57;54.76
67434;BME280;54305;47.950;6.572;2023-09-08T11:04:29;94579.94;;;31.75;58.60
67434;BME280;54305;47.950;6.572;2023-09-08T11:06:56;94574.72;;;32.07;53.37
67434;BME280;54305;47.950;6.572;2023-09-08T11:09:21;94583.13;;;32.24;55.03
67434;BME280;54305;47.950;6.572;2023-09-08T11:11:48;94581.19;;;31.53;55.00
67434;BME280;54305;47.950;6.572;2023-09-08T11:14:13;94580.94;;;30.88;56.27
67434;BME280;54305;47.950;6.572;2023-09-08T11:16:39;94576.94;;;31.47;59.15
67434;BME280;54305;47.950;6.572;2023-09-08T11:19:04;94578.38;;;32.16;48.80
67434;BME280;54305;47.950;6.572;2023-09-08T11:21:30;94574.59;;;32.77;54.69
67434;BME280;54305;47.950;6.572;2023-09-08T11:24:00;94578.31;;;33.37;54.88
67434;BME280;54305;47.950;6.572;2023-09-08T11:26:25;94573.34;;;33.25;46.62
67434;BME280;54305;47.950;6.572;2023-09-08T11:28:51;94578.38;;;32.39;50.22
67434;BME280;54305;47.950;6.572;2023-09-08T11:31:18;94582.03;;;32.25;53.43
67434;BME280;54305;47.950;6.572;2023-09-08T11:33:44;94569.22;;;31.64;58.30
67434;BME280;54305;47.950;6.572;2023-09-08T11:36:16;94567.78;;;31.48;59.10
67434;BME280;54305;47.950;6.572;2023-09-08T11:38:42;94571.16;;;30.53;59.70
67434;BME280;54305;47.950;6.572;2023-09-08T11:41:07;94571.59;;;30.70;61.25
67434;BME280;54305;47.950;6.572;2023-09-08T11:43:33;94570.69;;;30.41;66.97
67434;BME280;54305;47.950;6.572;2023-09-08T11:45:59;94562.16;;;31.11;69.86
67434;BME280;54305;47.950;6.572;2023-09-08T11:48:24;94576.59;;;30.43;64.29
67434;BME280;54305;47.950;6.572;2023-09-08T11:50:52;94571.81;;;30.84;70.55
67434;BME280;54305;47.950;6.572;2023-09-08T11:53:21;94566.16;;;30.85;59.24
67434;BME280;54305;47.950;6.572;2023-09-08T11:55:46;94560.34;;;32.35;58.06
67434;BME280;54305;47.950;6.572;2023-09-08T11:58:12;94566.31;;;32.08;53.99
67434;BME280;54305;47.950;6.572;2023-09-08T12:00:38;94562.91;;;31.50;58.83
67434;BME280;54305;47.950;6.572;2023-09-08T12:03:14;94557.75;;;31.25;61.03
67434;BME280;54305;47.950;6.572;2023-09-08T12:05:40;94559.16;;;31.46;56.36
67434;BME280;54305;47.950;6.572;2023-09-08T12:08:06;94562.09;;;31.79;51.53
67434;BME280;54305;47.950;6.572;2023-09-08T12:10:37;94551.53;;;31.58;57.79
67434;BME280;54305;47.950;6.572;2023-09-08T12:13:03;94559.09;;;32.27;60.33
67434;BME280;54305;47.950;6.572;2023-09-08T12:18:00;94560.66;;;31.00;58.96
67434;BME280;54305;47.950;6.572;2023-09-08T12:20:25;94560.06;;;30.70;61.70
67434;BME280;54305;47.950;6.572;2023-09-08T12:22:51;94558.41;;;30.25;61.55
67434;BME280;54305;47.950;6.572;2023-09-08T12:25:17;94544.25;;;31.30;55.53
67434;BME280;54305;47.950;6.572;2023-09-08T12:27:42;94550.25;;;31.17;60.70
67434;BME280;54305;47.950;6.572;2023-09-08T12:30:08;94553.75;;;31.80;55.37
67434;BME280;54305;47.950;6.572;2023-09-08T12:32:35;94553.19;;;32.86;53.44
67434;BME280;54305;47.950;6.572;2023-09-08T12:35:02;94547.91;;;32.15;45.54
67434;BME280;54305;47.950;6.572;2023-09-08T12:37:28;94547.19;;;31.63;46.21
67434;BME280;54305;47.950;6.572;2023-09-08T12:39:54;94543.38;;;30.63;51.79
67434;BME280;54305;47.950;6.572;2023-09-08T12:42:20;94549.66;;;30.53;51.13
67434;BME280;54305;47.950;6.572;2023-09-08T12:44:45;94548.50;;;31.36;60.48
67434;BME280;54305;47.950;6.572;2023-09-08T12:47:11;94541.78;;;31.63;58.20
67434;BME280;54305;47.950;6.572;2023-09-08T12:49:37;94539.84;;;30.77;54.60
67434;BME280;54305;47.950;6.572;2023-09-08T12:52:02;94542.44;;;29.90;60.24
67434;BME280;54305;47.950;6.572;2023-09-08T12:54:28;94541.22;;;29.28;65.69